Time;durP1;ratioP1;P1;durP2;ratioP2;P2;SDS_P1;SDS_P2;PMS_P1;PMS_P2;Temp;Humidity;BMP_temperature;BMP_pressure;BME280_temperature;BME280_humidity;BME280_pressure;Samples;Min_cycle;Max_cycle;Signal;HPM_P1;HPM_P2
2022/03/23 00:00:57;;;;;;;0.80;0.80;;;2.10;1.00;;;;;;5095361;28;20570;-74
2022/03/23 00:03:23;;;;;;;0.70;0.70;;;2.10;1.00;;;;;;5095729;28;20766;-73
2022/03/23 00:05:48;;;;;;;0.80;0.80;;;2.10;1.00;;;;;;5095575;28;20580;-73
2022/03/23 00:08:14;;;;;;;0.80;0.80;;;2.00;1.00;;;;;;5095615;28;20547;-72
2022/03/23 00:10:40;;;;;;;0.80;0.80;;;2.10;99.90;;;;;;5095907;28;20357;-74
2022/03/23 00:13:05;;;;;;;0.70;0.70;;;2.10;1.00;;;;;;5096336;28;20176;-72
2022/03/23 00:15:31;;;;;;;0.80;0.80;;;2.10;99.90;;;;;;5096067;28;20176;-72
2022/03/23 00:17:57;;;;;;;0.70;0.70;;;2.20;1.00;;;;;;5095853;28;20655;-73
2022/03/23 00:20:27;;;;;;;0.80;0.80;;;2.30;99.90;;;;;;5095431;28;20189;-70
2022/03/23 00:22:52;;;;;;;0.80;0.80;;;2.20;1.00;;;;;;5095595;28;20177;-72
2022/03/23 00:25:18;;;;;;;0.80;0.80;;;2.10;99.90;;;;;;5095094;28;20173;-73
2022/03/23 00:27:43;;;;;;;0.70;0.70;;;2.00;99.90;;;;;;5095487;28;20220;-73
2022/03/23 00:30:10;;;;;;;0.80;0.80;;;1.80;1.00;;;;;;5094710;28;20563;-73
2022/03/23 00:32:36;;;;;;;0.60;0.60;;;1.90;1.00;;;;;;5094999;28;20190;-73
2022/03/23 00:35:03;;;;;;;0.70;0.70;;;1.90;1.00;;;;;;5095102;28;20215;-71
2022/03/23 00:37:28;;;;;;;0.80;0.80;;;1.80;1.00;;;;;;5095404;28;20805;-71
2022/03/23 00:39:54;;;;;;;0.80;0.80;;;1.70;1.00;;;;;;5094672;28;20225;-73
2022/03/23 00:42:19;;;;;;;0.70;0.70;;;1.60;99.90;;;;;;5095067;28;20658;-72
2022/03/23 00:44:45;;;;;;;0.73;0.73;;;1.70;1.00;;;;;;5094507;28;20252;-75
2022/03/23 00:47:11;;;;;;;0.80;0.80;;;1.60;1.00;;;;;;5094621;28;20313;-73
2022/03/23 00:49:37;;;;;;;0.70;0.70;;;1.60;99.90;;;;;;5094358;28;20193;-73
2022/03/23 00:52:05;;;;;;;0.70;0.70;;;1.50;1.00;;;;;;5094587;28;20204;-74
2022/03/23 00:54:34;;;;;;;0.80;0.80;;;1.40;1.00;;;;;;5094525;28;20652;-72
2022/03/23 00:57:01;;;;;;;0.90;0.90;;;1.40;99.90;;;;;;5094536;28;20546;-73
2022/03/23 00:59:26;;;;;;;0.70;0.70;;;1.40;1.00;;;;;;5094195;28;20315;-74
2022/03/23 01:01:52;;;;;;;0.80;0.80;;;1.40;1.00;;;;;;5094487;28;20211;-73
2022/03/23 01:04:18;;;;;;;0.70;0.70;;;1.30;99.90;;;;;;5094781;28;20207;-71
2022/03/23 01:06:44;;;;;;;0.70;0.70;;;1.20;9.00;;;;;;5094373;28;20226;-73
2022/03/23 01:09:09;;;;;;;0.80;0.80;;;1.00;1.00;;;;;;5094390;28;20174;-75
2022/03/23 01:11:37;;;;;;;0.80;0.80;;;1.00;1.00;;;;;;5094688;28;20532;-73
2022/03/23 01:14:04;;;;;;;0.73;0.73;;;1.10;1.00;;;;;;5094598;28;20178;-73
2022/03/23 01:16:30;;;;;;;0.80;0.80;;;1.10;1.00;;;;;;5094363;28;20174;-74
2022/03/23 01:18:56;;;;;;;0.80;0.80;;;1.10;60.70;;;;;;5094004;28;20583;-75
2022/03/23 01:21:22;;;;;;;0.80;0.80;;;1.10;1.00;;;;;;5094727;28;20189;-73
2022/03/23 01:23:48;;;;;;;0.80;0.80;;;1.10;99.90;;;;;;5094769;28;20178;-71
2022/03/23 01:26:13;;;;;;;0.70;0.70;;;0.90;1.00;;;;;;5094176;28;20567;-73
2022/03/23 01:28:39;;;;;;;0.77;0.77;;;1.00;99.90;;;;;;5094098;28;20208;-73
2022/03/23 01:31:05;;;;;;;0.70;0.70;;;0.90;1.00;;;;;;5093770;28;20228;-72
2022/03/23 01:33:31;;;;;;;0.70;0.70;;;1.10;39.20;;;;;;5093944;28;20585;-74
2022/03/23 01:35:57;;;;;;;0.90;0.90;;;1.20;1.00;;;;;;5093968;28;20170;-72
2022/03/23 01:38:23;;;;;;;0.80;0.80;;;1.20;99.90;;;;;;5094409;28;20315;-73
2022/03/23 01:40:48;;;;;;;0.80;0.80;;;1.00;99.90;;;;;;5093721;28;20233;-74
2022/03/23 01:43:14;;;;;;;0.80;0.80;;;0.80;1.00;;;;;;5094016;28;20554;-76
2022/03/23 01:45:39;;;;;;;0.70;0.70;;;0.70;1.00;;;;;;5093660;28;20176;-73
2022/03/23 01:48:05;;;;;;;0.90;0.90;;;0.70;99.90;;;;;;5093839;28;20189;-73
2022/03/23 01:50:30;;;;;;;0.80;0.80;;;0.70;99.90;;;;;;5093631;28;20696;-76
2022/03/23 01:52:56;;;;;;;0.80;0.80;;;0.70;1.00;;;;;;5094319;28;20182;-73
2022/03/23 01:55:22;;;;;;;0.80;0.80;;;0.80;99.90;;;;;;5093387;28;20173;-74
2022/03/23 01:57:51;;;;;;;0.80;0.80;;;0.90;1.00;;;;;;5094487;28;20210;-75
2022/03/23 02:00:18;;;;;;;0.70;0.70;;;0.70;99.90;;;;;;5093547;28;20213;-72
2022/03/23 02:02:44;;;;;;;0.80;0.80;;;0.60;1.00;;;;;;5093843;28;20186;-74
2022/03/23 02:05:11;;;;;;;0.70;0.70;;;0.60;99.90;;;;;;5093428;28;20185;-74
2022/03/23 02:07:37;;;;;;;0.80;0.80;;;0.60;1.00;;;;;;5093528;28;20213;-75
2022/03/23 02:10:04;;;;;;;0.80;0.80;;;0.40;1.00;;;;;;5093115;28;20250;-74
2022/03/23 02:12:30;;;;;;;0.70;0.70;;;0.30;1.00;;;;;;5093529;28;20182;-73
2022/03/23 02:15:08;;;;;;;0.73;0.73;;;0.40;1.00;;;;;;5093313;28;20200;-72
2022/03/23 02:17:34;;;;;;;0.80;0.80;;;0.40;1.00;;;;;;5093206;28;20209;-72
2022/03/23 02:20:00;;;;;;;0.80;0.80;;;0.80;1.00;;;;;;5092597;28;20228;-73
2022/03/23 02:22:25;;;;;;;0.70;0.70;;;0.30;26.80;;;;;;5093303;28;20173;-74
2022/03/23 02:24:50;;;;;;;0.70;0.70;;;0.30;1.00;;;;;;5093072;28;20173;-75
2022/03/23 02:27:18;;;;;;;0.80;0.80;;;0.30;1.00;;;;;;5093176;28;20698;-73
2022/03/23 02:29:44;;;;;;;0.90;0.90;;;0.20;99.90;;;;;;5092653;28;20217;-73
2022/03/23 02:32:10;;;;;;;0.80;0.80;;;0.20;45.20;;;;;;5092924;28;20189;-73
2022/03/23 02:34:36;;;;;;;0.70;0.70;;;0.30;99.90;;;;;;5093205;28;20177;-73
2022/03/23 02:37:01;;;;;;;0.73;0.73;;;0.20;1.00;;;;;;5092949;28;20269;-73
2022/03/23 02:39:27;;;;;;;0.80;0.80;;;0.30;1.00;;;;;;5092565;28;20258;-73
2022/03/23 02:41:56;;;;;;;0.80;0.80;;;0.20;14.70;;;;;;5093222;28;20183;-76
2022/03/23 02:44:23;;;;;;;0.70;0.70;;;0.30;1.00;;;;;;5092836;28;20239;-73
2022/03/23 02:46:48;;;;;;;0.70;0.70;;;0.20;99.90;;;;;;5092709;28;20618;-73
2022/03/23 02:49:16;;;;;;;0.90;0.90;;;0.30;99.90;;;;;;5092536;28;20235;-73
2022/03/23 02:51:42;;;;;;;0.80;0.80;;;0.30;1.00;;;;;;5092966;28;20640;-73
2022/03/23 03:03:05;;;;;;;0.80;0.80;;;0.00;99.90;;;;;;5092885;28;20715;-73
2022/03/23 03:05:30;;;;;;;0.80;0.80;;;0.00;1.00;;;;;;5092575;28;20256;-73
2022/03/23 03:10:40;;;;;;;0.70;0.70;;;0.10;99.90;;;;;;5092236;28;20644;-73
2022/03/23 03:13:05;;;;;;;0.80;0.80;;;0.20;43.90;;;;;;5092222;28;20628;-73
2022/03/23 03:15:31;;;;;;;0.80;0.80;;;0.20;1.00;;;;;;5092361;28;20180;-72
2022/03/23 03:17:59;;;;;;;0.80;0.80;;;0.10;1.00;;;;;;5092165;28;20174;-73
2022/03/23 03:20:26;;;;;;;0.80;0.80;;;0.20;1.00;;;;;;5092229;28;20250;-73
2022/03/23 03:22:52;;;;;;;0.80;0.80;;;0.10;1.00;;;;;;5092140;28;20554;-76
2022/03/23 03:25:20;;;;;;;0.80;0.80;;;0.10;1.00;;;;;;5092070;28;20173;-74
2022/03/23 03:27:46;;;;;;;0.80;0.80;;;0.00;1.00;;;;;;5092049;28;20252;-75
2022/03/23 03:30:13;;;;;;;0.90;0.90;;;0.00;99.90;;;;;;5091235;28;20257;-73
2022/03/23 03:32:40;;;;;;;0.80;0.80;;;-0.20;99.90;;;;;;5091702;28;20196;-75
2022/03/23 03:35:06;;;;;;;0.70;0.70;;;-0.20;1.00;;;;;;5091515;28;20628;-73
2022/03/23 03:37:32;;;;;;;0.80;0.80;;;-0.10;1.00;;;;;;5091963;28;20351;-74
2022/03/23 03:39:59;;;;;;;0.80;0.80;;;-0.20;1.00;;;;;;5091601;28;20239;-77
2022/03/23 03:42:26;;;;;;;0.70;0.70;;;-0.10;99.90;;;;;;5091503;28;20644;-74
2022/03/23 03:44:52;;;;;;;0.80;0.80;;;-0.30;1.00;;;;;;5091790;28;20174;-73
2022/03/23 03:47:19;;;;;;;0.90;0.90;;;-0.20;99.90;;;;;;5091443;28;21106;-73
2022/03/23 03:49:44;;;;;;;0.80;0.80;;;-0.20;99.90;;;;;;5091585;28;20198;-73
2022/03/23 03:52:10;;;;;;;0.80;0.80;;;-0.20;1.00;;;;;;5091808;28;20189;-73
2022/03/23 03:54:36;;;;;;;0.80;0.80;;;-0.20;99.90;;;;;;5091999;28;20181;-74
2022/03/23 03:57:03;;;;;;;0.80;0.80;;;-0.20;1.00;;;;;;5091828;28;20186;-74
2022/03/23 03:59:28;;;;;;;0.80;0.80;;;-0.10;99.90;;;;;;5091456;28;20184;-73
2022/03/23 04:01:54;;;;;;;0.80;0.80;;;-0.30;99.90;;;;;;5091505;28;20178;-73
2022/03/23 04:04:20;;;;;;;0.90;0.90;;;-0.20;99.90;;;;;;5091982;28;20177;-75
2022/03/23 04:06:45;;;;;;;0.80;0.80;;;-0.20;1.00;;;;;;5091756;28;20731;-73
2022/03/23 04:09:11;;;;;;;0.80;0.80;;;-0.40;99.90;;;;;;5091408;28;20197;-74
2022/03/23 04:11:36;;;;;;;0.80;0.80;;;-0.40;56.60;;;;;;5091476;28;20247;-74
2022/03/23 04:14:02;;;;;;;0.80;0.80;;;-0.50;1.00;;;;;;5091517;28;20641;-74
2022/03/23 04:16:28;;;;;;;0.80;0.80;;;-0.50;1.00;;;;;;5091553;28;20177;-73
2022/03/23 04:18:53;;;;;;;0.80;0.80;;;-0.60;1.00;;;;;;5092978;28;20177;-76
2022/03/23 04:21:19;;;;;;;0.90;0.90;;;-0.60;1.00;;;;;;5095912;28;20212;-72
2022/03/23 04:23:45;;;;;;;0.80;0.80;;;-0.60;1.00;;;;;;5095174;28;20184;-73
2022/03/23 04:26:10;;;;;;;0.80;0.80;;;-0.60;1.00;;;;;;5095102;28;20652;-72
2022/03/23 04:28:36;;;;;;;0.80;0.80;;;-0.60;1.00;;;;;;5095169;28;20266;-74
2022/03/23 04:31:02;;;;;;;0.80;0.80;;;-0.60;1.00;;;;;;5095206;28;20193;-77
2022/03/23 04:33:28;;;;;;;0.80;0.80;;;-0.60;1.00;;;;;;5099352;28;20235;-72
2022/03/23 04:35:54;;;;;;;0.90;0.90;;;-0.60;99.90;;;;;;5104975;28;20637;-73
2022/03/23 04:38:20;;;;;;;0.90;0.90;;;-0.60;99.90;;;;;;5105729;28;20238;-72
2022/03/23 04:40:46;;;;;;;0.70;0.70;;;-0.70;1.00;;;;;;5095449;28;20205;-74
2022/03/23 04:43:11;;;;;;;0.90;0.90;;;-0.70;1.00;;;;;;5095411;28;20231;-73
2022/03/23 04:45:37;;;;;;;0.90;0.90;;;-0.60;1.00;;;;;;5095059;28;20658;-73
2022/03/23 04:48:04;;;;;;;0.80;0.80;;;-0.60;1.00;;;;;;5094605;28;20284;-75
2022/03/23 04:50:30;;;;;;;0.80;0.80;;;-0.70;1.00;;;;;;5094245;28;20198;-74
2022/03/23 04:52:56;;;;;;;0.80;0.80;;;-0.80;1.00;;;;;;5094718;28;20199;-75
2022/03/23 04:55:21;;;;;;;0.80;0.80;;;-0.70;1.00;;;;;;5094503;28;20170;-73
2022/03/23 04:57:47;;;;;;;0.90;0.90;;;-0.80;99.90;;;;;;5094602;28;20540;-72
2022/03/23 05:00:15;;;;;;;0.87;0.87;;;-0.80;99.90;;;;;;5094097;28;20198;-74
2022/03/23 05:02:42;;;;;;;0.90;0.90;;;-0.90;99.90;;;;;;5094413;28;20654;-75
2022/03/23 05:05:13;;;;;;;0.80;0.80;;;-0.90;1.00;;;;;;5094538;28;20193;-72
2022/03/23 05:07:40;;;;;;;0.80;0.80;;;-0.90;1.00;;;;;;5094505;28;20248;-77
2022/03/23 05:10:07;;;;;;;0.80;0.80;;;-0.80;1.00;;;;;;5094301;28;20221;-72
2022/03/23 05:12:32;;;;;;;0.80;0.80;;;-0.90;1.00;;;;;;5094147;28;20745;-73
2022/03/23 05:14:58;;;;;;;0.80;0.80;;;-1.00;1.00;;;;;;5094151;28;20169;-72
2022/03/23 05:17:24;;;;;;;0.80;0.80;;;-1.00;1.00;;;;;;5094246;28;20178;-73
2022/03/23 05:19:49;;;;;;;0.80;0.80;;;-1.00;1.00;;;;;;5094102;28;20277;-73
2022/03/23 05:22:15;;;;;;;0.80;0.80;;;-0.90;1.00;;;;;;5094533;28;20198;-71
2022/03/23 05:24:41;;;;;;;0.80;0.80;;;-0.90;1.00;;;;;;5094547;28;20593;-74
2022/03/23 05:27:08;;;;;;;0.80;0.80;;;-0.80;1.00;;;;;;5094254;28;20214;-74
2022/03/23 05:29:34;;;;;;;0.83;0.83;;;-0.80;1.00;;;;;;5094258;28;20178;-70
2022/03/23 05:32:00;;;;;;;0.80;0.80;;;-0.80;99.90;;;;;;5093918;28;20211;-71
2022/03/23 05:34:25;;;;;;;0.83;0.83;;;-0.80;99.90;;;;;;5094273;28;20268;-75
2022/03/23 05:36:51;;;;;;;0.80;0.80;;;-0.70;99.90;;;;;;5093885;28;20253;-73
2022/03/23 05:39:16;;;;;;;0.87;0.87;;;-0.60;99.90;;;;;;5093229;28;20196;-72
2022/03/23 05:41:42;;;;;;;0.80;0.80;;;-0.60;99.90;;;;;;5093601;28;20671;-73
2022/03/23 05:44:08;;;;;;;0.80;0.80;;;-0.60;99.90;;;;;;5093826;28;20710;-72
2022/03/23 05:46:34;;;;;;;0.80;0.80;;;-0.40;99.90;;;;;;5093320;28;20238;-72
2022/03/23 05:48:59;;;;;;;0.90;0.90;;;-0.40;1.00;;;;;;5092754;28;20272;-71
2022/03/23 05:51:25;;;;;;;0.90;0.90;;;-0.40;1.00;;;;;;5074967;28;20216;-73
2022/03/23 05:53:51;;;;;;;0.90;0.90;;;-0.20;1.00;;;;;;5093159;28;20173;-72
2022/03/23 05:56:16;;;;;;;0.90;0.90;;;-0.10;99.90;;;;;;5093085;28;20178;-72
2022/03/23 05:58:42;;;;;;;0.90;0.90;;;0.00;99.90;;;;;;5093110;28;20170;-71
2022/03/23 06:01:08;;;;;;;0.90;0.90;;;0.00;99.90;;;;;;5092323;28;20194;-72
2022/03/23 06:03:35;;;;;;;0.80;0.80;;;0.10;99.90;;;;;;5092811;28;20181;-72
2022/03/23 06:06:01;;;;;;;0.80;0.80;;;0.30;99.90;;;;;;5092672;28;20656;-73
2022/03/23 06:08:26;;;;;;;0.80;0.80;;;0.50;1.00;;;;;;5092926;28;20189;-73
2022/03/23 06:10:52;;;;;;;0.80;0.80;;;0.70;1.00;;;;;;5092424;28;20205;-72
2022/03/23 06:13:17;;;;;;;0.80;0.80;;;1.00;1.00;;;;;;5093175;28;20177;-72
2022/03/23 06:15:43;;;;;;;0.80;0.80;;;1.30;1.00;;;;;;5097932;28;20177;-72
2022/03/23 06:18:08;;;;;;;0.70;0.70;;;1.10;27.70;;;;;;5099758;28;20182;-72
2022/03/23 06:20:34;;;;;;;0.87;0.87;;;0.90;99.90;;;;;;5103750;28;20178;-72
2022/03/23 06:22:59;;;;;;;0.90;0.90;;;1.00;99.90;;;;;;5104385;28;20525;-71
2022/03/23 06:25:26;;;;;;;0.80;0.80;;;1.60;1.00;;;;;;5094224;28;20231;-72
2022/03/23 06:27:52;;;;;;;0.73;0.73;;;2.10;81.80;;;;;;5092607;28;20266;-73
2022/03/23 06:30:17;;;;;;;0.70;0.70;;;1.90;1.00;;;;;;5092157;28;20201;-73
2022/03/23 06:32:43;;;;;;;0.70;0.70;;;1.60;99.90;;;;;;5092382;28;20205;-74
2022/03/23 06:35:08;;;;;;;0.80;0.80;;;1.70;1.00;;;;;;5093535;28;20206;-73
2022/03/23 06:37:34;;;;;;;0.90;0.90;;;1.90;1.00;;;;;;5092503;28;20178;-72
2022/03/23 06:40:01;;;;;;;0.80;0.80;;;2.00;99.90;;;;;;5081151;28;20251;-71
2022/03/23 06:42:27;;;;;;;0.80;0.80;;;2.40;1.00;;;;;;5079984;28;20648;-72
2022/03/23 06:44:53;;;;;;;0.80;0.80;;;2.40;1.00;;;;;;5082692;28;20551;-71
2022/03/23 06:47:19;;;;;;;0.80;0.80;;;2.40;99.90;;;;;;5077169;28;20684;-71
2022/03/23 06:49:44;;;;;;;0.70;0.70;;;2.40;1.00;;;;;;5071569;28;20195;-71
2022/03/23 06:52:10;;;;;;;0.90;0.90;;;2.70;99.90;;;;;;5072214;28;20178;-72
2022/03/23 06:54:35;;;;;;;0.77;0.77;;;2.80;1.00;;;;;;5071665;28;20269;-70
2022/03/23 06:57:01;;;;;;;0.80;0.80;;;3.10;1.00;;;;;;5079435;28;20181;-71
2022/03/23 06:59:26;;;;;;;0.90;0.90;;;3.50;7.00;;;;;;5080060;28;20174;-71
2022/03/23 07:01:52;;;;;;;0.70;0.70;;;3.80;1.00;;;;;;5081770;28;20169;-70
2022/03/23 07:04:17;;;;;;;0.90;0.90;;;4.00;99.90;;;;;;5084167;28;20174;-71
2022/03/23 07:06:43;;;;;;;0.70;0.70;;;3.90;99.90;;;;;;5092018;28;20296;-73
2022/03/23 07:11:53;;;;;;;0.50;0.50;;;5.90;76.60;;;;;;5088305;28;20390;-70
2022/03/23 07:14:19;;;;;;;0.60;0.60;;;6.70;1.00;;;;;;5082273;28;20237;-70
2022/03/23 07:16:44;;;;;;;0.60;0.60;;;6.80;1.00;;;;;;5080057;28;20204;-70
2022/03/23 07:19:10;;;;;;;0.60;0.60;;;6.30;1.00;;;;;;5088455;28;20182;-70
2022/03/23 07:21:36;;;;;;;0.60;0.60;;;8.10;1.00;;;;;;5083302;28;20392;-71
2022/03/23 07:24:01;;;;;;;0.60;0.60;;;8.30;1.00;;;;;;5083005;28;20202;-72
2022/03/23 07:26:27;;;;;;;0.60;0.60;;;9.60;1.00;;;;;;5084724;28;20217;-72
2022/03/23 07:28:52;;;;;;;0.50;0.50;;;10.00;1.00;;;;;;5091076;28;20177;-72
2022/03/23 07:31:18;;;;;;;0.50;0.50;;;10.80;1.00;;;;;;5091270;28;20273;-71
2022/03/23 07:33:43;;;;;;;0.50;0.50;;;10.70;1.00;;;;;;5091419;28;20204;-72
2022/03/23 07:36:11;;;;;;;0.40;0.40;;;10.00;1.00;;;;;;5091343;28;20184;-72
2022/03/23 07:38:36;;;;;;;0.30;0.30;;;10.50;1.00;;;;;;5091205;28;20178;-72
2022/03/23 07:41:02;;;;;;;0.40;0.40;;;10.40;1.00;;;;;;5090906;28;20257;-72
2022/03/23 07:43:27;;;;;;;0.30;0.30;;;10.50;1.00;;;;;;5091452;28;20631;-76
2022/03/23 07:45:53;;;;;;;0.30;0.30;;;10.70;1.00;;;;;;5091477;28;20186;-71
2022/03/23 07:48:20;;;;;;;0.40;0.40;;;11.90;1.00;;;;;;5086582;28;20197;-72
2022/03/23 07:50:46;;;;;;;0.63;0.63;;;11.60;1.00;;;;;;5090749;28;20193;-72
2022/03/23 07:53:11;;;;;;;0.30;0.30;;;12.00;1.00;;;;;;5094652;28;20637;-72
2022/03/23 07:55:37;;;;;;;0.40;0.40;;;11.90;1.00;;;;;;5091764;28;20199;-72
2022/03/23 07:58:02;;;;;;;0.40;0.40;;;11.30;1.00;;;;;;5084118;28;20168;-72
2022/03/23 08:00:28;;;;;;;0.30;0.30;;;12.30;1.00;;;;;;5084907;28;20196;-71
2022/03/23 08:02:54;;;;;;;0.30;0.30;;;12.50;1.00;;;;;;5086988;28;20596;-72
2022/03/23 08:05:19;;;;;;;0.30;0.30;;;12.30;1.00;;;;;;5094922;28;20594;-72
2022/03/23 08:07:45;;;;;;;0.30;0.30;;;12.50;1.00;;;;;;5086809;28;20559;-72
2022/03/23 08:10:11;;;;;;;0.40;0.40;;;12.40;1.00;;;;;;5091016;28;20562;-71
2022/03/23 08:12:36;;;;;;;0.40;0.40;;;13.40;1.00;;;;;;5085322;28;20185;-72
2022/03/23 08:15:02;;;;;;;0.30;0.30;;;13.20;1.00;;;;;;5091893;28;20200;-71
2022/03/23 08:17:28;;;;;;;0.30;0.30;;;13.40;1.00;;;;;;5094676;28;20262;-69
2022/03/23 08:22:37;;;;;;;0.30;0.30;;;14.90;1.00;;;;;;5083651;28;20263;-71
2022/03/23 08:25:03;;;;;;;0.30;0.30;;;14.40;1.00;;;;;;5083704;28;20662;-71
2022/03/23 08:27:29;;;;;;;0.37;0.37;;;14.40;1.00;;;;;;5084954;28;20217;-71
2022/03/23 08:29:55;;;;;;;0.30;0.30;;;14.20;1.00;;;;;;5084385;28;20562;-69
2022/03/23 08:32:22;;;;;;;0.30;0.30;;;13.50;1.00;;;;;;5083699;28;20175;-71
2022/03/23 08:34:49;;;;;;;0.30;0.30;;;14.10;1.00;;;;;;5082809;28;20184;-72
2022/03/23 08:37:14;;;;;;;0.37;0.37;;;14.30;1.00;;;;;;5082515;28;20261;-74
2022/03/23 08:39:40;;;;;;;0.30;0.30;;;15.10;1.00;;;;;;5082975;28;20585;-73
2022/03/23 08:42:06;;;;;;;0.30;0.30;;;14.90;1.00;;;;;;5083169;28;20174;-72
2022/03/23 08:44:31;;;;;;;0.30;0.30;;;15.00;1.00;;;;;;5084771;28;20541;-71
2022/03/23 08:46:57;;;;;;;0.20;0.20;;;15.40;1.00;;;;;;5083079;28;20292;-72
2022/03/23 08:49:22;;;;;;;0.33;0.33;;;15.80;1.00;;;;;;5082674;28;20186;-70
2022/03/23 08:51:48;;;;;;;0.30;0.30;;;15.30;1.00;;;;;;5084437;28;20208;-70
2022/03/23 08:54:13;;;;;;;0.40;0.40;;;15.50;1.00;;;;;;5079153;28;20175;-70
2022/03/23 08:56:39;;;;;;;0.40;0.40;;;14.90;1.00;;;;;;5078397;28;20183;-71
2022/03/23 08:59:05;;;;;;;0.27;0.27;;;15.10;1.00;;;;;;5073746;28;20174;-73
2022/03/23 09:01:30;;;;;;;0.30;0.30;;;14.80;1.00;;;;;;5073752;28;20217;-70
2022/03/23 09:04:00;;;;;;;0.30;0.30;;;15.30;1.00;;;;;;5072827;28;20238;-70
2022/03/23 09:06:26;;;;;;;0.40;0.40;;;15.70;1.00;;;;;;5073479;28;20241;-71
2022/03/23 09:08:51;;;;;;;0.30;0.30;;;16.00;1.00;;;;;;5073056;28;20209;-71
2022/03/23 09:11:17;;;;;;;0.40;0.40;;;16.20;1.00;;;;;;5073432;28;20202;-71
2022/03/23 09:13:44;;;;;;;0.40;0.40;;;16.00;1.00;;;;;;5073448;28;20526;-72
2022/03/23 09:16:09;;;;;;;0.30;0.30;;;16.70;1.00;;;;;;5073354;28;20661;-72
2022/03/23 09:18:35;;;;;;;0.30;0.30;;;16.60;1.00;;;;;;5073258;28;20274;-72
2022/03/23 09:21:01;;;;;;;0.30;0.30;;;17.20;1.00;;;;;;5072984;28;20191;-72
2022/03/23 09:23:26;;;;;;;0.30;0.30;;;17.50;1.00;;;;;;5081294;28;20608;-73
2022/03/23 09:25:52;;;;;;;0.30;0.30;;;17.10;1.00;;;;;;5082286;28;20167;-70
2022/03/23 09:28:19;;;;;;;0.30;0.30;;;17.50;1.00;;;;;;5084400;28;20182;-71
2022/03/23 09:30:44;;;;;;;0.20;0.20;;;16.50;1.00;;;;;;5082807;28;20195;-70
2022/03/23 09:33:10;;;;;;;0.30;0.30;;;16.50;1.00;;;;;;5074036;28;20621;-73
2022/03/23 09:35:35;;;;;;;0.30;0.30;;;16.80;1.00;;;;;;5073227;28;20224;-70
2022/03/23 09:38:04;;;;;;;0.20;0.20;;;16.50;1.00;;;;;;5072829;28;20181;-71
2022/03/23 09:40:32;;;;;;;0.40;0.40;;;17.10;1.00;;;;;;5072121;28;20230;-73
2022/03/23 09:43:00;;;;;;;0.33;0.33;;;18.20;1.00;;;;;;5072910;28;20178;-72
2022/03/23 09:45:38;;;;;;;0.40;0.40;;;19.10;1.00;;;;;;5072806;28;20228;-73
2022/03/23 09:48:09;;;;;;;0.40;0.40;;;18.10;1.00;;;;;;5072719;28;20213;-72
2022/03/23 09:50:36;;;;;;;0.40;0.40;;;19.00;1.00;;;;;;5081890;28;20217;-73
2022/03/23 09:53:03;;;;;;;0.30;0.30;;;19.10;1.00;;;;;;5092905;28;20182;-74
2022/03/23 09:55:30;;;;;;;0.30;0.30;;;19.00;1.00;;;;;;5092922;28;20204;-74
2022/03/23 09:57:57;;;;;;;0.37;0.37;;;19.90;1.00;;;;;;5092726;28;20628;-74
2022/03/23 10:00:23;;;;;;;0.30;0.30;;;19.90;1.00;;;;;;5092037;28;20663;-73
2022/03/23 10:02:58;;;;;;;0.30;0.30;;;20.20;1.00;;;;;;5092929;28;20193;-73
2022/03/23 10:05:45;;;;;;;0.27;0.27;;;20.10;1.00;;;;;;5092374;28;20214;-72
2022/03/23 10:08:48;;;;;;;0.30;0.30;;;20.80;1.00;;;;;;5092532;28;20692;-72
2022/03/23 10:11:44;;;;;;;0.30;0.30;;;20.40;1.00;;;;;;5092705;28;20243;-71
2022/03/23 10:14:30;;;;;;;0.40;0.40;;;20.50;1.00;;;;;;5092711;28;20177;-78
2022/03/23 10:17:17;;;;;;;0.40;0.40;;;20.10;1.00;;;;;;5086470;28;20174;-75
2022/03/23 10:19:44;;;;;;;0.40;0.40;;;19.60;1.00;;;;;;5071968;28;20186;-75
2022/03/23 10:22:13;;;;;;;0.33;0.33;;;20.60;1.00;;;;;;5072815;28;20244;-75
2022/03/23 10:24:39;;;;;;;0.40;0.40;;;21.20;1.00;;;;;;5072127;28;20182;-75
2022/03/23 10:27:06;;;;;;;0.40;0.40;;;20.70;1.00;;;;;;5071992;28;20202;-76
2022/03/23 10:29:32;;;;;;;0.50;0.50;;;20.90;1.00;;;;;;5072093;28;20174;-77
2022/03/23 10:32:08;;;;;;;0.30;0.30;;;21.20;1.00;;;;;;5072299;28;20180;-77
2022/03/23 10:34:53;;;;;;;0.30;0.30;;;21.00;1.00;;;;;;5072155;28;20665;-74
2022/03/23 10:37:30;;;;;;;0.40;0.40;;;20.90;1.00;;;;;;5072170;28;20182;-76
2022/03/23 10:39:58;;;;;;;0.30;0.30;;;20.70;1.00;;;;;;5072167;28;20251;-72
2022/03/23 10:42:27;;;;;;;0.30;0.30;;;19.80;1.00;;;;;;5072168;28;20178;-75
2022/03/23 10:45:22;;;;;;;0.37;0.37;;;19.80;1.00;;;;;;5074542;28;20171;-74
2022/03/23 10:47:49;;;;;;;0.40;0.40;;;19.20;1.00;;;;;;5071250;28;20206;-72
2022/03/23 10:50:18;;;;;;;0.33;0.33;;;19.90;1.00;;;;;;5091227;28;20202;-75
2022/03/23 10:52:55;;;;;;;0.40;0.40;;;20.50;1.00;;;;;;5091800;28;20663;-74
2022/03/23 10:55:23;;;;;;;0.30;0.30;;;21.10;1.00;;;;;;5091782;28;20659;-75
2022/03/23 10:57:52;;;;;;;0.43;0.43;;;20.60;1.00;;;;;;5091864;28;20626;-73
2022/03/23 11:00:33;;;;;;;0.40;0.40;;;20.80;1.00;;;;;;5091128;28;20204;-75
2022/03/23 11:03:01;;;;;;;0.30;0.30;;;20.40;1.00;;;;;;5091891;28;20218;-75
2022/03/23 11:05:33;;;;;;;0.30;0.30;;;20.10;1.00;;;;;;5091651;28;20173;-75
2022/03/23 11:08:07;;;;;;;0.30;0.30;;;20.20;1.00;;;;;;5091613;28;20205;-73
2022/03/23 11:16:06;;;;;;;0.30;0.30;;;21.50;1.00;;;;;;5091883;28;20762;-75
2022/03/23 11:18:32;;;;;;;0.30;0.30;;;21.50;1.00;;;;;;5091827;28;20202;-74
2022/03/23 11:20:58;;;;;;;0.40;0.40;;;21.30;1.00;;;;;;5091456;28;20272;-75
2022/03/23 11:23:35;;;;;;;0.30;0.30;;;21.10;1.00;;;;;;5091199;28;20173;-75
2022/03/23 11:26:07;;;;;;;0.30;0.30;;;20.70;1.00;;;;;;5091119;28;20200;-75
2022/03/23 11:28:39;;;;;;;0.50;0.50;;;22.20;1.00;;;;;;5091191;28;20235;-75
2022/03/23 11:31:07;;;;;;;0.40;0.40;;;21.10;1.00;;;;;;5090756;28;20636;-76
2022/03/23 11:33:34;;;;;;;0.30;0.30;;;21.50;1.00;;;;;;5091685;28;20213;-76
2022/03/23 11:36:00;;;;;;;0.37;0.37;;;22.70;1.00;;;;;;5091314;28;20197;-75
2022/03/23 11:38:27;;;;;;;0.40;0.40;;;22.70;1.00;;;;;;5091152;28;20328;-75
2022/03/23 11:40:54;;;;;;;0.40;0.40;;;23.10;1.00;;;;;;5090750;28;20686;-77
2022/03/23 11:43:22;;;;;;;0.30;0.30;;;22.50;1.00;;;;;;5091430;28;20524;-74
2022/03/23 11:45:52;;;;;;;0.30;0.30;;;21.80;1.00;;;;;;5091548;28;20290;-74
2022/03/23 11:48:23;;;;;;;0.30;0.30;;;21.00;1.00;;;;;;5091450;28;20232;-75
2022/03/23 11:51:18;;;;;;;0.40;0.40;;;21.40;1.00;;;;;;5090860;28;20281;-75
2022/03/23 11:54:09;;;;;;;0.30;0.30;;;22.10;1.00;;;;;;5091222;28;20261;-76
2022/03/23 11:56:56;;;;;;;0.30;0.30;;;22.20;1.00;;;;;;5091104;28;20557;-73
2022/03/23 11:59:28;;;;;;;0.30;0.30;;;22.20;1.00;;;;;;5090748;28;20181;-74
2022/03/23 12:01:56;;;;;;;0.20;0.20;;;22.20;1.00;;;;;;5091215;28;20265;-77
2022/03/23 12:04:27;;;;;;;0.20;0.20;;;23.30;1.00;;;;;;5091265;28;20173;-74
2022/03/23 12:07:03;;;;;;;0.30;0.30;;;24.10;1.00;;;;;;5090997;28;20205;-79
2022/03/23 12:09:31;;;;;;;0.30;0.30;;;24.30;1.00;;;;;;5090809;28;20231;-76
2022/03/23 12:11:56;;;;;;;0.40;0.40;;;23.60;1.00;;;;;;5091111;28;20314;-73
2022/03/23 12:14:25;;;;;;;0.40;0.40;;;24.20;1.00;;;;;;5091432;28;20252;-75
2022/03/23 12:16:50;;;;;;;0.40;0.40;;;24.40;1.00;;;;;;5091079;28;20178;-75
2022/03/23 12:19:17;;;;;;;0.27;0.27;;;24.40;1.00;;;;;;5090761;28;20165;-76
2022/03/23 12:22:05;;;;;;;0.40;0.40;;;24.40;1.00;;;;;;5091062;28;20178;-76
2022/03/23 12:24:37;;;;;;;0.30;0.30;;;24.60;1.00;;;;;;5091201;28;20265;-77
2022/03/23 12:27:27;;;;;;;0.30;0.30;;;24.60;1.00;;;;;;5091135;28;20355;-77
2022/03/23 12:29:57;;;;;;;0.50;0.50;;;24.70;1.00;;;;;;5093147;28;20266;-76
2022/03/23 12:32:34;;;;;;;0.20;0.20;;;24.20;1.00;;;;;;5102833;28;20184;-78
2022/03/23 12:35:00;;;;;;;0.50;0.50;;;24.10;1.00;;;;;;5103144;28;20192;-76
2022/03/23 12:37:39;;;;;;;0.40;0.40;;;24.10;1.00;;;;;;5085453;28;20189;-77
2022/03/23 12:40:10;;;;;;;0.33;0.33;;;24.40;1.00;;;;;;5103647;28;20253;-75
2022/03/23 12:42:41;;;;;;;0.20;0.20;;;24.50;1.00;;;;;;5078348;28;20567;-76
2022/03/23 12:45:16;;;;;;;0.40;0.40;;;24.40;1.00;;;;;;5094891;28;20170;-74
2022/03/23 12:47:53;;;;;;;0.30;0.30;;;24.70;1.00;;;;;;5094407;28;20231;-75
2022/03/23 12:58:45;;;;;;;0.30;0.30;;;25.10;1.00;;;;;;5093172;28;20188;-79
2022/03/23 13:01:18;;;;;;;0.40;0.40;;;25.20;1.00;;;;;;5073512;28;20191;-74
2022/03/23 13:03:43;;;;;;;0.37;0.37;;;25.30;1.00;;;;;;5073619;28;20214;-76
2022/03/23 13:06:14;;;;;;;0.40;0.40;;;25.20;1.00;;;;;;5074116;28;20206;-76
2022/03/23 13:08:50;;;;;;;0.30;0.30;;;24.60;1.00;;;;;;5073903;28;20216;-80
2022/03/23 13:11:20;;;;;;;0.30;0.30;;;24.30;1.00;;;;;;5075882;28;20190;-76
2022/03/23 13:13:50;;;;;;;0.40;0.40;;;23.00;1.00;;;;;;5073716;28;20236;-76
2022/03/23 13:16:19;;;;;;;0.30;0.30;;;22.90;1.00;;;;;;5073739;28;20209;-74
2022/03/23 13:18:46;;;;;;;0.30;0.30;;;22.90;1.00;;;;;;5073668;28;20200;-76
2022/03/23 13:21:21;;;;;;;0.30;0.30;;;22.70;1.00;;;;;;5073302;28;20209;-77
2022/03/23 13:23:53;;;;;;;0.50;0.50;;;22.80;1.00;;;;;;5073602;28;20653;-74
2022/03/23 13:26:22;;;;;;;0.47;0.47;;;22.90;1.00;;;;;;5073830;28;20222;-77
2022/03/23 13:28:50;;;;;;;0.30;0.30;;;22.90;1.00;;;;;;5073588;28;20179;-76
2022/03/23 13:31:31;;;;;;;0.37;0.37;;;22.60;1.00;;;;;;5073385;28;20190;-76